sensor_id;sensor_type;location;lat;lon;timestamp;pressure;altitude;pressure_sealevel;temperature;humidity
54994;BME280;40891;47.242;8.648;2023-12-28T00:00:33;96736.75;;;3.21;100.00
54994;BME280;40891;47.242;8.648;2023-12-28T00:02:58;96740.28;;;3.14;100.00
54994;BME280;40891;47.242;8.648;2023-12-28T00:05:23;96748.13;;;3.05;100.00
54994;BME280;40891;47.242;8.648;2023-12-28T00:07:49;96733.63;;;3.01;100.00
54994;BME280;40891;47.242;8.648;2023-12-28T00:10:22;96737.13;;;3.05;100.00
54994;BME280;40891;47.242;8.648;2023-12-28T00:12:48;96735.22;;;3.02;100.00
54994;BME280;40891;47.242;8.648;2023-12-28T00:15:13;96728.94;;;3.02;100.00
54994;BME280;40891;47.242;8.648;2023-12-28T00:17:38;96742.66;;;2.95;100.00
54994;BME280;40891;47.242;8.648;2023-12-28T00:20:04;96736.00;;;2.89;100.00
54994;BME280;40891;47.242;8.648;2023-12-28T00:22:30;96734.81;;;2.97;100.00
54994;BME280;40891;47.242;8.648;2023-12-28T00:24:55;96741.50;;;3.03;100.00
54994;BME280;40891;47.242;8.648;2023-12-28T00:27:20;96749.31;;;3.08;100.00
54994;BME280;40891;47.242;8.648;2023-12-28T00:29:45;96750.88;;;3.09;100.00
54994;BME280;40891;47.242;8.648;2023-12-28T00:32:11;96752.84;;;3.05;100.00
54994;BME280;40891;47.242;8.648;2023-12-28T00:34:36;96763.03;;;3.11;100.00
54994;BME280;40891;47.242;8.648;2023-12-28T00:37:02;96757.97;;;3.10;100.00
54994;BME280;40891;47.242;8.648;2023-12-28T00:39:27;96765.78;;;2.94;97.49
54994;BME280;40891;47.242;8.648;2023-12-28T00:41:53;96757.97;;;2.89;96.12
54994;BME280;40891;47.242;8.648;2023-12-28T00:44:18;96769.72;;;2.89;96.47
54994;BME280;40891;47.242;8.648;2023-12-28T00:46:43;96777.19;;;2.89;97.12
54994;BME280;40891;47.242;8.648;2023-12-28T00:49:08;96778.75;;;2.83;94.65
54994;BME280;40891;47.242;8.648;2023-12-28T00:51:34;96773.28;;;2.86;92.00
54994;BME280;40891;47.242;8.648;2023-12-28T00:53:59;96778.34;;;2.95;89.68
54994;BME280;40891;47.242;8.648;2023-12-28T00:56:25;96758.75;;;3.00;88.41
54994;BME280;40891;47.242;8.648;2023-12-28T00:58:50;96777.19;;;2.96;88.59
54994;BME280;40891;47.242;8.648;2023-12-28T01:01:15;96767.38;;;2.95;87.38
54994;BME280;40891;47.242;8.648;2023-12-28T01:03:40;96777.56;;;3.05;85.59
54994;BME280;40891;47.242;8.648;2023-12-28T01:06:06;96779.94;;;3.10;84.21
54994;BME280;40891;47.242;8.648;2023-12-28T01:08:31;96776.78;;;3.11;84.18
54994;BME280;40891;47.242;8.648;2023-12-28T01:10:59;96780.31;;;3.12;83.71
54994;BME280;40891;47.242;8.648;2023-12-28T01:13:24;96771.66;;;3.13;83.44
54994;BME280;40891;47.242;8.648;2023-12-28T01:15:49;96772.84;;;3.16;82.32
54994;BME280;40891;47.242;8.648;2023-12-28T01:18:15;96780.31;;;3.19;81.01
54994;BME280;40891;47.242;8.648;2023-12-28T01:20:40;96785.41;;;3.17;81.46
54994;BME280;40891;47.242;8.648;2023-12-28T01:23:05;96794.41;;;3.17;82.76
54994;BME280;40891;47.242;8.648;2023-12-28T01:25:30;96793.63;;;3.20;84.93
54994;BME280;40891;47.242;8.648;2023-12-28T01:27:56;96797.16;;;3.28;87.68
54994;BME280;40891;47.242;8.648;2023-12-28T01:30:21;96800.28;;;3.37;88.49
54994;BME280;40891;47.242;8.648;2023-12-28T01:32:46;96799.88;;;3.49;91.85
54994;BME280;40891;47.242;8.648;2023-12-28T01:35:12;96794.78;;;3.40;93.19
54994;BME280;40891;47.242;8.648;2023-12-28T01:37:37;96805.00;;;3.33;95.83
54994;BME280;40891;47.242;8.648;2023-12-28T01:40:02;96798.34;;;3.23;97.61
54994;BME280;40891;47.242;8.648;2023-12-28T01:42:28;96812.88;;;3.17;97.74
54994;BME280;40891;47.242;8.648;2023-12-28T01:44:56;96805.03;;;3.05;96.46
54994;BME280;40891;47.242;8.648;2023-12-28T01:47:22;96803.47;;;3.00;97.07
54994;BME280;40891;47.242;8.648;2023-12-28T01:49:47;96805.03;;;3.15;94.40
54994;BME280;40891;47.242;8.648;2023-12-28T01:52:13;96802.28;;;3.26;95.06
54994;BME280;40891;47.242;8.648;2023-12-28T01:54:38;96812.47;;;3.43;92.58
54994;BME280;40891;47.242;8.648;2023-12-28T01:57:04;96808.53;;;3.40;91.88
54994;BME280;40891;47.242;8.648;2023-12-28T01:59:30;96822.28;;;3.30;92.46
54994;BME280;40891;47.242;8.648;2023-12-28T02:01:56;96826.22;;;3.18;92.81
54994;BME280;40891;47.242;8.648;2023-12-28T02:04:22;96823.44;;;3.15;91.86
54994;BME280;40891;47.242;8.648;2023-12-28T02:06:55;96835.63;;;3.07;89.86
54994;BME280;40891;47.242;8.648;2023-12-28T02:09:21;96840.34;;;3.03;88.16
54994;BME280;40891;47.242;8.648;2023-12-28T02:11:46;96832.50;;;3.19;83.13
54994;BME280;40891;47.242;8.648;2023-12-28T02:14:12;96834.84;;;3.20;84.04
54994;BME280;40891;47.242;8.648;2023-12-28T02:16:42;96839.94;;;3.22;82.33
54994;BME280;40891;47.242;8.648;2023-12-28T02:19:31;96841.91;;;3.32;81.58
54994;BME280;40891;47.242;8.648;2023-12-28T02:21:59;96841.50;;;3.44;80.80
54994;BME280;40891;47.242;8.648;2023-12-28T02:24:24;96832.44;;;3.58;81.25
54994;BME280;40891;47.242;8.648;2023-12-28T02:26:49;96830.47;;;3.69;80.17
54994;BME280;40891;47.242;8.648;2023-12-28T02:29:15;96827.69;;;3.72;79.02
54994;BME280;40891;47.242;8.648;2023-12-28T02:31:46;96822.94;;;3.80;78.83
54994;BME280;40891;47.242;8.648;2023-12-28T02:34:30;96828.44;;;3.76;80.23
54994;BME280;40891;47.242;8.648;2023-12-28T02:36:59;96825.34;;;3.60;85.40
54994;BME280;40891;47.242;8.648;2023-12-28T02:39:26;96809.72;;;3.43;94.11
54994;BME280;40891;47.242;8.648;2023-12-28T02:41:54;96829.72;;;3.33;100.00
54994;BME280;40891;47.242;8.648;2023-12-28T02:44:20;96836.00;;;3.23;100.00
54994;BME280;40891;47.242;8.648;2023-12-28T02:46:46;96832.09;;;3.17;100.00
54994;BME280;40891;47.242;8.648;2023-12-28T02:49:11;96835.63;;;3.35;100.00
54994;BME280;40891;47.242;8.648;2023-12-28T02:51:37;96817.97;;;3.22;100.00
54994;BME280;40891;47.242;8.648;2023-12-28T02:54:02;96834.84;;;3.20;100.00
54994;BME280;40891;47.242;8.648;2023-12-28T02:56:27;96839.94;;;3.29;100.00
54994;BME280;40891;47.242;8.648;2023-12-28T02:58:53;96831.69;;;3.29;100.00
54994;BME280;40891;47.242;8.648;2023-12-28T03:01:18;96825.41;;;3.32;100.00
54994;BME280;40891;47.242;8.648;2023-12-28T03:03:43;96834.06;;;3.30;100.00
54994;BME280;40891;47.242;8.648;2023-12-28T03:06:09;96827.78;;;3.19;100.00
54994;BME280;40891;47.242;8.648;2023-12-28T03:08:34;96826.19;;;3.22;100.00
54994;BME280;40891;47.242;8.648;2023-12-28T03:10:59;96829.34;;;3.24;100.00
54994;BME280;40891;47.242;8.648;2023-12-28T03:13:24;96835.63;;;3.14;100.00
54994;BME280;40891;47.242;8.648;2023-12-28T03:15:50;96827.00;;;3.05;100.00
54994;BME280;40891;47.242;8.648;2023-12-28T03:18:15;96830.16;;;2.93;100.00
54994;BME280;40891;47.242;8.648;2023-12-28T03:20:40;96830.16;;;2.86;100.00
54994;BME280;40891;47.242;8.648;2023-12-28T03:23:06;96828.56;;;2.95;100.00
54994;BME280;40891;47.242;8.648;2023-12-28T03:25:31;96831.69;;;2.94;100.00
54994;BME280;40891;47.242;8.648;2023-12-28T03:27:56;96834.06;;;2.88;100.00
54994;BME280;40891;47.242;8.648;2023-12-28T03:30:21;96830.16;;;2.86;100.00
54994;BME280;40891;47.242;8.648;2023-12-28T03:32:47;96828.56;;;2.92;100.00
54994;BME280;40891;47.242;8.648;2023-12-28T03:35:12;96822.69;;;2.93;100.00
54994;BME280;40891;47.242;8.648;2023-12-28T03:37:37;96820.31;;;2.99;100.00
54994;BME280;40891;47.242;8.648;2023-12-28T03:40:03;96809.34;;;2.92;100.00
54994;BME280;40891;47.242;8.648;2023-12-28T03:42:29;96816.78;;;2.91;100.00
54994;BME280;40891;47.242;8.648;2023-12-28T03:44:55;96821.50;;;2.77;100.00
54994;BME280;40891;47.242;8.648;2023-12-28T03:47:20;96812.09;;;2.70;100.00
54994;BME280;40891;47.242;8.648;2023-12-28T03:49:45;96816.00;;;2.73;100.00
54994;BME280;40891;47.242;8.648;2023-12-28T03:52:11;96808.16;;;2.75;100.00
54994;BME280;40891;47.242;8.648;2023-12-28T03:54:36;96806.97;;;2.80;100.00
54994;BME280;40891;47.242;8.648;2023-12-28T03:57:02;96810.16;;;2.89;100.00
54994;BME280;40891;47.242;8.648;2023-12-28T03:59:27;96817.59;;;2.92;100.00
54994;BME280;40891;47.242;8.648;2023-12-28T04:01:52;96824.25;;;2.87;100.00
54994;BME280;40891;47.242;8.648;2023-12-28T04:04:17;96825.44;;;2.79;100.00
54994;BME280;40891;47.242;8.648;2023-12-28T04:06:43;96824.25;;;2.77;100.00
54994;BME280;40891;47.242;8.648;2023-12-28T04:09:11;96824.25;;;2.84;100.00
54994;BME280;40891;47.242;8.648;2023-12-28T04:11:37;96823.84;;;2.74;100.00
54994;BME280;40891;47.242;8.648;2023-12-28T04:14:03;96825.41;;;2.68;100.00
54994;BME280;40891;47.242;8.648;2023-12-28T04:16:28;96825.78;;;2.63;100.00
54994;BME280;40891;47.242;8.648;2023-12-28T04:18:53;96830.09;;;2.57;100.00
54994;BME280;40891;47.242;8.648;2023-12-28T04:21:18;96827.38;;;2.57;100.00
54994;BME280;40891;47.242;8.648;2023-12-28T04:23:44;96832.44;;;2.52;100.00
54994;BME280;40891;47.242;8.648;2023-12-28T04:26:09;96828.13;;;2.54;100.00
54994;BME280;40891;47.242;8.648;2023-12-28T04:28:35;96831.28;;;2.60;98.60
54994;BME280;40891;47.242;8.648;2023-12-28T04:31:07;96838.38;;;2.71;96.63
54994;BME280;40891;47.242;8.648;2023-12-28T04:33:32;96832.06;;;2.74;96.57
54994;BME280;40891;47.242;8.648;2023-12-28T04:36:04;96832.88;;;2.75;95.68
54994;BME280;40891;47.242;8.648;2023-12-28T04:38:30;96829.72;;;2.73;96.33
54994;BME280;40891;47.242;8.648;2023-12-28T04:40:56;96832.06;;;2.67;96.44
54994;BME280;40891;47.242;8.648;2023-12-28T04:43:22;96823.84;;;2.64;95.82
54994;BME280;40891;47.242;8.648;2023-12-28T04:45:49;96822.25;;;2.63;94.54
54994;BME280;40891;47.242;8.648;2023-12-28T04:48:14;96817.16;;;2.61;94.78
54994;BME280;40891;47.242;8.648;2023-12-28T04:50:40;96814.44;;;2.58;93.83
54994;BME280;40891;47.242;8.648;2023-12-28T04:53:05;96818.75;;;2.62;95.09
54994;BME280;40891;47.242;8.648;2023-12-28T04:55:30;96810.13;;;2.74;95.33
54994;BME280;40891;47.242;8.648;2023-12-28T04:57:55;96809.75;;;2.76;94.78
54994;BME280;40891;47.242;8.648;2023-12-28T05:00:21;96805.03;;;2.69;95.71
54994;BME280;40891;47.242;8.648;2023-12-28T05:02:46;96806.97;;;2.65;97.54
54994;BME280;40891;47.242;8.648;2023-12-28T05:05:12;96806.19;;;2.54;98.56
54994;BME280;40891;47.242;8.648;2023-12-28T05:07:37;96804.19;;;2.44;100.00
54994;BME280;40891;47.242;8.648;2023-12-28T05:10:04;96814.78;;;2.42;100.00
54994;BME280;40891;47.242;8.648;2023-12-28T05:12:29;96808.97;;;2.65;100.00
54994;BME280;40891;47.242;8.648;2023-12-28T05:14:54;96822.66;;;2.61;100.00
54994;BME280;40891;47.242;8.648;2023-12-28T05:17:20;96821.84;;;2.47;100.00
54994;BME280;40891;47.242;8.648;2023-12-28T05:19:45;96823.41;;;2.44;100.00
54994;BME280;40891;47.242;8.648;2023-12-28T05:22:10;96811.66;;;2.40;100.00
54994;BME280;40891;47.242;8.648;2023-12-28T05:24:36;96810.09;;;2.46;100.00
54994;BME280;40891;47.242;8.648;2023-12-28T05:27:01;96817.16;;;2.61;100.00
54994;BME280;40891;47.242;8.648;2023-12-28T05:29:26;96814.84;;;2.78;100.00
54994;BME280;40891;47.242;8.648;2023-12-28T05:31:52;96816.00;;;2.73;100.00
54994;BME280;40891;47.242;8.648;2023-12-28T05:34:17;96819.94;;;2.72;100.00
54994;BME280;40891;47.242;8.648;2023-12-28T05:36:42;96812.06;;;2.56;100.00
54994;BME280;40891;47.242;8.648;2023-12-28T05:39:10;96803.06;;;2.52;100.00
54994;BME280;40891;47.242;8.648;2023-12-28T05:41:38;96814.41;;;2.51;100.00
54994;BME280;40891;47.242;8.648;2023-12-28T05:44:03;96810.88;;;2.54;100.00
54994;BME280;40891;47.242;8.648;2023-12-28T05:46:29;96816.00;;;2.55;100.00
54994;BME280;40891;47.242;8.648;2023-12-28T05:48:54;96812.47;;;2.55;100.00
54994;BME280;40891;47.242;8.648;2023-12-28T05:51:19;96810.09;;;2.46;100.00
54994;BME280;40891;47.242;8.648;2023-12-28T05:53:44;96812.44;;;2.44;100.00
54994;BME280;40891;47.242;8.648;2023-12-28T05:56:10;96807.31;;;2.32;100.00
54994;BME280;40891;47.242;8.648;2023-12-28T05:58:35;96812.06;;;2.63;100.00
54994;BME280;40891;47.242;8.648;2023-12-28T06:01:01;96810.13;;;2.78;100.00
54994;BME280;40891;47.242;8.648;2023-12-28T06:03:29;96810.53;;;2.77;100.00
54994;BME280;40891;47.242;8.648;2023-12-28T06:05:55;96807.78;;;2.91;100.00
54994;BME280;40891;47.242;8.648;2023-12-28T06:08:20;96813.28;;;2.98;100.00
54994;BME280;40891;47.242;8.648;2023-12-28T06:10:46;96813.66;;;3.00;100.00
54994;BME280;40891;47.242;8.648;2023-12-28T06:13:11;96816.03;;;3.12;98.71
54994;BME280;40891;47.242;8.648;2023-12-28T06:15:36;96814.03;;;3.23;96.95
54994;BME280;40891;47.242;8.648;2023-12-28T06:18:01;96807.34;;;3.34;94.26
54994;BME280;40891;47.242;8.648;2023-12-28T06:20:28;96806.16;;;3.39;93.39
54994;BME280;40891;47.242;8.648;2023-12-28T06:22:53;96819.09;;;3.49;91.83
54994;BME280;40891;47.242;8.648;2023-12-28T06:25:18;96800.25;;;3.51;90.42
54994;BME280;40891;47.242;8.648;2023-12-28T06:27:44;96801.44;;;3.54;89.67
54994;BME280;40891;47.242;8.648;2023-12-28T06:30:09;96804.19;;;3.54;89.23
54994;BME280;40891;47.242;8.648;2023-12-28T06:32:34;96788.44;;;3.61;88.30
54994;BME280;40891;47.242;8.648;2023-12-28T06:35:00;96789.63;;;3.60;88.70
54994;BME280;40891;47.242;8.648;2023-12-28T06:37:25;96794.28;;;3.81;86.12
54994;BME280;40891;47.242;8.648;2023-12-28T06:39:51;96797.03;;;3.77;86.78
54994;BME280;40891;47.242;8.648;2023-12-28T06:42:16;96795.50;;;3.62;86.85
54994;BME280;40891;47.242;8.648;2023-12-28T06:44:41;96801.78;;;3.66;86.36
54994;BME280;40891;47.242;8.648;2023-12-28T06:47:06;96806.88;;;3.71;86.34
54994;BME280;40891;47.242;8.648;2023-12-28T06:49:32;96799.38;;;3.79;85.83
54994;BME280;40891;47.242;8.648;2023-12-28T06:51:57;96797.03;;;3.77;86.15
54994;BME280;40891;47.242;8.648;2023-12-28T06:54:22;96810.00;;;3.77;85.31
54994;BME280;40891;47.242;8.648;2023-12-28T06:56:48;96799.75;;;3.88;84.61
54994;BME280;40891;47.242;8.648;2023-12-28T06:59:13;96805.25;;;3.88;84.28
54994;BME280;40891;47.242;8.648;2023-12-28T07:01:41;96805.66;;;3.83;85.47
54994;BME280;40891;47.242;8.648;2023-12-28T07:04:07;96805.66;;;3.90;85.47
54994;BME280;40891;47.242;8.648;2023-12-28T07:06:32;96809.53;;;3.96;83.77
54994;BME280;40891;47.242;8.648;2023-12-28T07:08:58;96807.59;;;3.89;83.67
54994;BME280;40891;47.242;8.648;2023-12-28T07:11:23;96811.56;;;3.74;85.56
54994;BME280;40891;47.242;8.648;2023-12-28T07:13:48;96798.22;;;3.73;84.67
54994;BME280;40891;47.242;8.648;2023-12-28T07:16:14;96802.13;;;3.82;84.52
54994;BME280;40891;47.242;8.648;2023-12-28T07:18:39;96807.22;;;3.87;82.88
54994;BME280;40891;47.242;8.648;2023-12-28T07:21:05;96799.69;;;4.02;80.96
54994;BME280;40891;47.242;8.648;2023-12-28T07:23:34;96809.13;;;4.04;81.56
54994;BME280;40891;47.242;8.648;2023-12-28T07:25:59;96803.59;;;4.11;80.11
54994;BME280;40891;47.242;8.648;2023-12-28T07:28:25;96809.03;;;4.22;78.67
54994;BME280;40891;47.242;8.648;2023-12-28T07:30:50;96815.28;;;4.30;78.28
54994;BME280;40891;47.242;8.648;2023-12-28T07:33:15;96806.13;;;4.50;76.46
54994;BME280;40891;47.242;8.648;2023-12-28T07:35:40;96814.84;;;4.38;79.58
54994;BME280;40891;47.242;8.648;2023-12-28T07:38:06;96821.50;;;4.44;77.55
54994;BME280;40891;47.242;8.648;2023-12-28T07:40:31;96830.91;;;4.50;78.20
54994;BME280;40891;47.242;8.648;2023-12-28T07:42:56;96829.72;;;4.51;80.10
54994;BME280;40891;47.242;8.648;2023-12-28T07:45:22;96836.00;;;4.52;82.58
54994;BME280;40891;47.242;8.648;2023-12-28T07:47:50;96843.16;;;4.42;85.12
54994;BME280;40891;47.242;8.648;2023-12-28T07:50:16;96844.31;;;4.45;87.11
54994;BME280;40891;47.242;8.648;2023-12-28T07:52:42;96852.19;;;4.39;85.97
54994;BME280;40891;47.242;8.648;2023-12-28T07:55:08;96836.06;;;4.41;86.51
54994;BME280;40891;47.242;8.648;2023-12-28T07:57:34;96829.69;;;4.55;85.09
54994;BME280;40891;47.242;8.648;2023-12-28T07:59:59;96833.97;;;4.59;85.11
54994;BME280;40891;47.242;8.648;2023-12-28T08:02:25;96840.66;;;4.65;85.57
54994;BME280;40891;47.242;8.648;2023-12-28T08:04:50;96836.22;;;4.78;84.69
54994;BME280;40891;47.242;8.648;2023-12-28T08:07:15;96840.56;;;4.79;84.35
54994;BME280;40891;47.242;8.648;2023-12-28T08:09:40;96842.19;;;4.70;82.83
54994;BME280;40891;47.242;8.648;2023-12-28T08:12:06;96830.75;;;4.75;80.58
54994;BME280;40891;47.242;8.648;2023-12-28T08:14:31;96825.47;;;4.98;80.41
54994;BME280;40891;47.242;8.648;2023-12-28T08:16:56;96821.41;;;5.13;77.42
54994;BME280;40891;47.242;8.648;2023-12-28T08:19:22;96817.63;;;5.37;77.12
54994;BME280;40891;47.242;8.648;2023-12-28T08:21:47;96827.75;;;5.92;74.36
54994;BME280;40891;47.242;8.648;2023-12-28T08:24:12;96825.75;;;6.60;73.00
54994;BME280;40891;47.242;8.648;2023-12-28T08:26:37;96829.38;;;6.80;71.41
54994;BME280;40891;47.242;8.648;2023-12-28T08:29:03;96829.13;;;6.98;71.33
54994;BME280;40891;47.242;8.648;2023-12-28T08:31:28;96833.19;;;6.90;71.08
54994;BME280;40891;47.242;8.648;2023-12-28T08:33:54;96831.28;;;6.56;71.90
54994;BME280;40891;47.242;8.648;2023-12-28T08:36:20;96827.03;;;6.22;74.01
54994;BME280;40891;47.242;8.648;2023-12-28T08:38:45;96829.34;;;5.89;78.60
54994;BME280;40891;47.242;8.648;2023-12-28T08:41:21;96824.66;;;5.83;80.22
54994;BME280;40891;47.242;8.648;2023-12-28T08:43:47;96815.78;;;6.05;79.53
54994;BME280;40891;47.242;8.648;2023-12-28T08:46:13;96815.72;;;6.09;78.21
54994;BME280;40891;47.242;8.648;2023-12-28T08:48:39;96826.13;;;5.98;80.48
54994;BME280;40891;47.242;8.648;2023-12-28T08:51:04;96822.91;;;6.03;80.64
54994;BME280;40891;47.242;8.648;2023-12-28T08:53:30;96818.66;;;6.29;80.54
54994;BME280;40891;47.242;8.648;2023-12-28T08:55:55;96816.41;;;6.50;80.25
54994;BME280;40891;47.242;8.648;2023-12-28T08:58:20;96822.09;;;6.66;80.11
54994;BME280;40891;47.242;8.648;2023-12-28T09:00:46;96821.88;;;6.80;78.67
54994;BME280;40891;47.242;8.648;2023-12-28T09:03:12;96813.00;;;6.93;78.64
54994;BME280;40891;47.242;8.648;2023-12-28T09:05:37;96810.31;;;7.12;77.18
54994;BME280;40891;47.242;8.648;2023-12-28T09:08:02;96816.50;;;7.20;76.01
54994;BME280;40891;47.242;8.648;2023-12-28T09:10:28;96815.41;;;7.40;75.04
54994;BME280;40891;47.242;8.648;2023-12-28T09:12:53;96817.06;;;7.34;76.21
54994;BME280;40891;47.242;8.648;2023-12-28T09:15:18;96817.97;;;7.05;77.15
54994;BME280;40891;47.242;8.648;2023-12-28T09:17:44;96819.13;;;6.80;75.04
54994;BME280;40891;47.242;8.648;2023-12-28T09:20:09;96817.03;;;6.88;72.46
54994;BME280;40891;47.242;8.648;2023-12-28T09:22:36;96811.34;;;6.72;73.19
54994;BME280;40891;47.242;8.648;2023-12-28T09:25:02;96808.66;;;6.65;74.43
54994;BME280;40891;47.242;8.648;2023-12-28T09:27:27;96816.84;;;6.45;74.39
54994;BME280;40891;47.242;8.648;2023-12-28T09:29:52;96822.28;;;6.52;73.96
54994;BME280;40891;47.242;8.648;2023-12-28T09:32:18;96830.19;;;6.50;72.14
54994;BME280;40891;47.242;8.648;2023-12-28T09:34:43;96840.09;;;6.48;73.11
54994;BME280;40891;47.242;8.648;2023-12-28T09:37:08;96836.69;;;6.37;75.15
54994;BME280;40891;47.242;8.648;2023-12-28T09:39:34;96828.34;;;6.40;75.57
54994;BME280;40891;47.242;8.648;2023-12-28T09:42:04;96831.03;;;6.47;76.09
54994;BME280;40891;47.242;8.648;2023-12-28T09:44:32;96825.94;;;6.46;73.35
54994;BME280;40891;47.242;8.648;2023-12-28T09:46:57;96830.25;;;6.47;75.25
54994;BME280;40891;47.242;8.648;2023-12-28T09:49:23;96830.84;;;6.31;76.23
54994;BME280;40891;47.242;8.648;2023-12-28T09:51:48;96834.78;;;6.30;77.07
54994;BME280;40891;47.242;8.648;2023-12-28T09:54:14;96833.56;;;6.35;77.71
54994;BME280;40891;47.242;8.648;2023-12-28T09:56:40;96838.19;;;6.41;78.72
54994;BME280;40891;47.242;8.648;2023-12-28T09:59:06;96823.66;;;6.37;81.15
54994;BME280;40891;47.242;8.648;2023-12-28T10:01:34;96825.16;;;6.42;80.28
54994;BME280;40891;47.242;8.648;2023-12-28T10:03:59;96832.97;;;6.50;80.90
54994;BME280;40891;47.242;8.648;2023-12-28T10:06:25;96834.88;;;6.53;81.71
54994;BME280;40891;47.242;8.648;2023-12-28T10:08:50;96828.16;;;6.54;83.31
54994;BME280;40891;47.242;8.648;2023-12-28T10:11:17;96838.84;;;6.52;84.42
54994;BME280;40891;47.242;8.648;2023-12-28T10:13:42;96838.59;;;6.43;85.59
54994;BME280;40891;47.242;8.648;2023-12-28T10:16:09;96841.44;;;6.36;88.18
54994;BME280;40891;47.242;8.648;2023-12-28T10:18:36;96835.16;;;6.32;88.84
54994;BME280;40891;47.242;8.648;2023-12-28T10:21:01;96826.28;;;6.48;87.51
54994;BME280;40891;47.242;8.648;2023-12-28T10:23:27;96827.22;;;6.38;86.49
54994;BME280;40891;47.242;8.648;2023-12-28T10:25:56;96829.44;;;6.16;86.69
54994;BME280;40891;47.242;8.648;2023-12-28T10:28:21;96828.75;;;6.08;84.11
54994;BME280;40891;47.242;8.648;2023-12-28T10:30:46;96832.28;;;6.09;84.13
54994;BME280;40891;47.242;8.648;2023-12-28T10:33:13;96831.47;;;6.12;82.93
54994;BME280;40891;47.242;8.648;2023-12-28T10:35:38;96834.09;;;6.23;82.54
54994;BME280;40891;47.242;8.648;2023-12-28T10:38:04;96821.72;;;6.34;83.62
54994;BME280;40891;47.242;8.648;2023-12-28T10:40:29;96821.56;;;6.48;84.28
54994;BME280;40891;47.242;8.648;2023-12-28T10:42:58;96828.84;;;6.62;85.80
54994;BME280;40891;47.242;8.648;2023-12-28T10:45:29;96830.69;;;6.72;86.19
54994;BME280;40891;47.242;8.648;2023-12-28T10:48:04;96816.00;;;6.78;86.84
54994;BME280;40891;47.242;8.648;2023-12-28T10:53:38;96801.28;;;6.85;86.57
54994;BME280;40891;47.242;8.648;2023-12-28T10:56:23;96792.09;;;6.92;84.99
54994;BME280;40891;47.242;8.648;2023-12-28T11:01:35;96800.38;;;6.92;84.99
54994;BME280;40891;47.242;8.648;2023-12-28T11:04:07;96795.28;;;6.90;84.53
54994;BME280;40891;47.242;8.648;2023-12-28T11:06:34;96798.84;;;6.91;83.10
54994;BME280;40891;47.242;8.648;2023-12-28T11:09:00;96788.31;;;7.05;82.26
54994;BME280;40891;47.242;8.648;2023-12-28T11:11:27;96783.44;;;7.13;83.27
54994;BME280;40891;47.242;8.648;2023-12-28T11:13:54;96775.28;;;7.29;82.34
54994;BME280;40891;47.242;8.648;2023-12-28T11:16:21;96774.31;;;7.39;82.17
54994;BME280;40891;47.242;8.648;2023-12-28T11:18:47;96772.16;;;7.50;81.84
54994;BME280;40891;47.242;8.648;2023-12-28T11:21:13;96766.19;;;7.51;83.52
54994;BME280;40891;47.242;8.648;2023-12-28T11:23:39;96765.53;;;7.44;83.21
54994;BME280;40891;47.242;8.648;2023-12-28T11:26:15;96754.91;;;7.42;83.33
54994;BME280;40891;47.242;8.648;2023-12-28T11:28:40;96766.44;;;7.37;82.26
54994;BME280;40891;47.242;8.648;2023-12-28T11:31:09;96767.81;;;7.49;80.40
54994;BME280;40891;47.242;8.648;2023-12-28T11:33:44;96757.28;;;7.64;71.63
54994;BME280;40891;47.242;8.648;2023-12-28T11:36:09;96769.19;;;7.61;74.67
54994;BME280;40891;47.242;8.648;2023-12-28T11:38:35;96773.13;;;7.60;78.05
54994;BME280;40891;47.242;8.648;2023-12-28T11:41:03;96781.38;;;7.63;79.18
54994;BME280;40891;47.242;8.648;2023-12-28T11:43:29;96782.09;;;7.67;79.39
54994;BME280;40891;47.242;8.648;2023-12-28T11:45:58;96786.16;;;7.82;77.38
54994;BME280;40891;47.242;8.648;2023-12-28T11:48:26;96783.31;;;7.86;78.46
54994;BME280;40891;47.242;8.648;2023-12-28T11:50:59;96781.13;;;7.97;78.38
54994;BME280;40891;47.242;8.648;2023-12-28T11:53:25;96777.69;;;7.70;77.89
54994;BME280;40891;47.242;8.648;2023-12-28T11:55:51;96786.22;;;7.79;73.22
54994;BME280;40891;47.242;8.648;2023-12-28T11:58:18;96776.06;;;7.72;70.25
54994;BME280;40891;47.242;8.648;2023-12-28T12:00:43;96783.66;;;7.68;67.91
54994;BME280;40891;47.242;8.648;2023-12-28T12:03:12;96775.09;;;7.82;68.73
54994;BME280;40891;47.242;8.648;2023-12-28T12:05:38;96777.72;;;8.09;70.17
54994;BME280;40891;47.242;8.648;2023-12-28T12:08:05;96769.53;;;8.21;70.47
54994;BME280;40891;47.242;8.648;2023-12-28T12:10:30;96770.47;;;8.15;72.77
54994;BME280;40891;47.242;8.648;2023-12-28T12:12:57;96776.81;;;8.15;74.05
54994;BME280;40891;47.242;8.648;2023-12-28T12:15:22;96773.31;;;8.31;71.79
54994;BME280;40891;47.242;8.648;2023-12-28T12:17:48;96759.13;;;8.29;70.44
54994;BME280;40891;47.242;8.648;2023-12-28T12:20:14;96752.44;;;8.27;70.28
54994;BME280;40891;47.242;8.648;2023-12-28T12:22:39;96751.00;;;8.38;69.46
54994;BME280;40891;47.242;8.648;2023-12-28T12:25:05;96755.75;;;8.38;67.81
54994;BME280;40891;47.242;8.648;2023-12-28T12:27:31;96756.00;;;8.27;66.29
54994;BME280;40891;47.242;8.648;2023-12-28T12:29:57;96756.50;;;8.42;66.34
54994;BME280;40891;47.242;8.648;2023-12-28T12:32:23;96753.78;;;8.38;66.70
54994;BME280;40891;47.242;8.648;2023-12-28T12:34:49;96750.94;;;8.42;66.21
54994;BME280;40891;47.242;8.648;2023-12-28T12:37:16;96751.34;;;8.40;67.87
54994;BME280;40891;47.242;8.648;2023-12-28T12:39:41;96747.72;;;8.43;68.63
54994;BME280;40891;47.242;8.648;2023-12-28T12:42:12;96746.28;;;8.55;69.22
54994;BME280;40891;47.242;8.648;2023-12-28T12:44:38;96755.16;;;8.66;71.04
54994;BME280;40891;47.242;8.648;2023-12-28T12:47:03;96741.47;;;8.91;72.57
54994;BME280;40891;47.242;8.648;2023-12-28T12:49:29;96744.75;;;9.02;70.14
54994;BME280;40891;47.242;8.648;2023-12-28T12:51:54;96744.41;;;9.00;71.01
54994;BME280;40891;47.242;8.648;2023-12-28T12:54:20;96748.59;;;9.08;72.01
54994;BME280;40891;47.242;8.648;2023-12-28T12:56:45;96743.91;;;9.05;72.09
54994;BME280;40891;47.242;8.648;2023-12-28T12:59:11;96746.84;;;9.14;73.02
54994;BME280;40891;47.242;8.648;2023-12-28T13:01:42;96739.72;;;9.29;72.31
54994;BME280;40891;47.242;8.648;2023-12-28T13:04:07;96741.16;;;9.50;71.34
54994;BME280;40891;47.242;8.648;2023-12-28T13:06:32;96735.09;;;9.55;71.23